Skyfall — D5IC2 — position and weather

sailwx.info

Track history (hours):
 
Tides and Currents Weather Stations Pressure Air Temp Water Temp Dewpoint Dewpoint Depression Visibility Wind Speed Wind Dir Waves Ship Positions

Skyfall

Last reported at 2017-Nov-19 16:49 UTC. Time now 2017-Nov-21 19:32 UTC.
Position S 28°60' E 032°02'.

Length 199 m; draft 7.3 m.

Type: Cargo ship. MMSI: 636016848.

Date/timePositionNaut miles runAvg speedWind from/ knotsBaromVisibWave heightAir tempDewpointWater temp
2017-Nov-19 16:49S 28°60' E 032°02'0 0.0
2017-Nov-19 16:28S 28°60' E 032°02'0 0.0
2017-Nov-19 15:58S 28°60' E 032°02'1 1.2
2017-Nov-19 15:30S 28°60' E 032°03'2 4.3
2017-Nov-19 15:00S 28°58' E 032°04'3 6.4
2017-Nov-19 14:31S 28°56' E 032°07'713.5
2017-Nov-19 14:00S 28°51' E 032°12'714.8
2017-Nov-19 13:30S 28°48' E 032°19'714.3
2017-Nov-19 13:00S 28°45' E 032°27'713.8
2017-Nov-19 12:30S 28°41' E 032°33'713.7
2017-Nov-19 12:00S 28°36' E 032°39'713.4
2017-Nov-19 11:30S 28°31' E 032°45'713.2
2017-Nov-19 11:01S 28°27' E 032°50'11513.1
2017-Nov-19 02:11S 27°03' E 034°20'313.2
2017-Nov-19 01:59S 27°01' E 034°22'812.9
2017-Nov-19 01:23S 26°55' E 034°28'512.9
2017-Nov-19 00:59S 26°52' E 034°32'  
Track history (hours):
 
Tides and Currents Weather Stations Pressure Air Temp Water Temp Dewpoint Dewpoint Depression Visibility Wind Speed Wind Dir Waves Ship Positions

Skyfall

Last reported at 2017-Nov-19 16:49 UTC. Time now 2017-Nov-21 19:32 UTC.
Position S 28°60' E 032°02'.

Length 199 m; draft 7.3 m.

Type: Cargo ship. MMSI: 636016848.

Date/timePositionNaut miles runAvg speedWind from/ knotsBaromVisibWave heightAir tempDewpointWater temp
2017-Nov-19 16:49S 28°60' E 032°02'0 0.0
2017-Nov-19 16:28S 28°60' E 032°02'0 0.0
2017-Nov-19 15:58S 28°60' E 032°02'1 1.2
2017-Nov-19 15:30S 28°60' E 032°03'2 4.3
2017-Nov-19 15:00S 28°58' E 032°04'3 6.4
2017-Nov-19 14:31S 28°56' E 032°07'713.5
2017-Nov-19 14:00S 28°51' E 032°12'714.8
2017-Nov-19 13:30S 28°48' E 032°19'714.3
2017-Nov-19 13:00S 28°45' E 032°27'713.8
2017-Nov-19 12:30S 28°41' E 032°33'713.7
2017-Nov-19 12:00S 28°36' E 032°39'713.4
2017-Nov-19 11:30S 28°31' E 032°45'713.2
2017-Nov-19 11:01S 28°27' E 032°50'11513.1
2017-Nov-19 02:11S 27°03' E 034°20'313.2
2017-Nov-19 01:59S 27°01' E 034°22'812.9
2017-Nov-19 01:23S 26°55' E 034°28'512.9
2017-Nov-19 00:59S 26°52' E 034°32'  

Dump ship's entire track history